This is the latest recevied weather packets stored in our database for station/object VE2CSM-13. If no packets are shown the sender has not sent any weather packets the latest 10 day(s).
| Time | Temp. | Humidity | Pressure | Rain* | Wind** | Luminosity | Snow |
|---|---|---|---|---|---|---|---|
| 1778007903 | 20.56° C | 68% | 1008.5 hPa | 0 mm | - | - | - |
| 1778004303 | 16.67° C | 87% | 1009.1 hPa | 1.27 mm | - | - | - |
| 1778002502 | 14.44° C | 92% | 1009.6 hPa | 1.78 mm | - | - | - |
| 1778000703 | 14.44° C | 91% | 1010 hPa | 3.05 mm | - | - | - |
| 1777998902 | 14.44° C | 88% | 1010.3 hPa | 2.54 mm | - | - | - |
| 1777997102 | 16.67° C | 73% | 1010.7 hPa | 0 mm | - | - | - |
| 1777993503 | 18.89° C | 60% | 1010.4 hPa | 0 mm | - | - | - |
| 1777989902 | 17.78° C | 54% | 1010.8 hPa | 0 mm | - | - | - |
| 1777986303 | 13.89° C | 66% | 1011.4 hPa | 0 mm | - | - | - |
| 1777982702 | 11.11° C | 74% | 1011.6 hPa | 0 mm | - | - | - |
| 1777980902 | 9.44° C | 78% | 1011.8 hPa | 0 mm | - | - | - |
| 1777979102 | 8.89° C | 80% | 1011.6 hPa | 0 mm | - | - | - |
| 1777975503 | 5.56° C | 89% | 1011.6 hPa | 0 mm | - | - | - |
| 1777971902 | 5.56° C | 91% | 1011.9 hPa | 0 mm | - | - | - |
| 1777968306 | 6.11° C | 88% | 1012.4 hPa | 0 mm | - | - | - |
| 1777967342 | 6.11° C | 88% | 1012.6 hPa | 0 mm | - | - | - |
| 1777966386 | 6.11° C | 88% | 1012.8 hPa | 0 mm | - | - | - |
| 1777965423 | 6.67° C | 86% | 1012.7 hPa | 0 mm | - | - | - |
| 1777964462 | 6.11° C | 87% | 1012.8 hPa | 0 mm | - | - | - |
| 1777963982 | 6.67° C | 86% | 1012.9 hPa | 0 mm | - | - | - |
| 1777963504 | 6.67° C | 87% | 1013 hPa | 0 mm | - | - | - |
| 1777963022 | 6.11° C | 86% | 1013.1 hPa | 0 mm | - | - | - |
| 1777962542 | 6.67° C | 86% | 1013 hPa | 0 mm | - | - | - |
| 1777962303 | 6.67° C | 85% | 1013.2 hPa | 0 mm | - | - | - |
| 1777962062 | 6.67° C | 85% | 1013.2 hPa | 0 mm | - | - | - |
* Rain latest hour (hover to see other rain measurements)
** Current wind speed in m/s (hover to see current wind gust speed)